Ana Sayfa
METAR-TAF:

METAR-TAF

Havaalanları :

Raymond, Mississipi, Amerika Birleşik Devletleri

Enlem: 32-18-16N, Boylam: 090-24-38W, yükseklik: 75 m

Güncel hava durumu gözlemi

Rapor saat 19:15 UTC de 19 dakika önce yapıldı.
Rüzgar kuzeybatıdan 5 kt ve 10 kt'a kadar ani rüzgarlar
Sıcaklık 34°C
Nem 56%
Basınç 1014 hPa
Görüş mesafesi: 16.1 km
5000 ft yükseklikte az bulutlu
5500 ft yükseklikte parçalı bulutlu

METAR: KJVW 251915Z AUTO 31005G10KT 10SM FEW050 SCT055 34/24 A2995 RMK AO2

Saat: 14:34 (19:34 UTC)


TAF: eksik

4.000'den fazla havaalanı için hava durumu gözlemleri ve tahminleri (METAR ve TAF raporları).

Kullanılabilir istasyonlar harita üzerinde sarı ve kırmızı noktalarla gösterilir.

İstasyonun adını görmek için fareyi noktanın üzerinde gezdirin.

Sonrasında hava gözlem ve tahminlerini görmek için tıklayın.

Haritayı değiştirmek için: yaklaştırmak için siyah artı işaretli yeşil düğmeye ve uzaklaştırmak için de eksi işaretli düğmeye hızla tıklayın; bitişik haritalar için yeşil okları kullanın.


METAR-TAF: